Time;durP1;ratioP1;P1;durP2;ratioP2;P2;SDS_P1;SDS_P2;PMS_P1;PMS_P2;Temp;Humidity;BMP_temperature;BMP_pressure;BME280_temperature;BME280_humidity;BME280_pressure;Samples;Min_cycle;Max_cycle;Signal;HPM_P1;HPM_P2
2021/05/27 00:00:06;;;;;;;0.30;0.30;;;;;;;8.51;90.59;99733.19;5084914;28;20013;-64
2021/05/27 00:02:31;;;;;;;0.30;0.30;;;;;;;8.55;90.38;99746.13;5084459;28;20029;-65
2021/05/27 00:04:56;;;;;;;0.35;0.35;;;;;;;8.50;90.28;99736.69;5084616;28;20471;-65
2021/05/27 00:07:22;;;;;;;0.30;0.30;;;;;;;8.48;90.26;99736.66;5084597;28;20028;-65
2021/05/27 00:09:47;;;;;;;0.35;0.35;;;;;;;8.45;90.44;99746.19;5084502;28;20029;-65
2021/05/27 00:12:14;;;;;;;0.30;0.30;;;;;;;8.43;90.37;99746.22;5084512;28;20032;-65
2021/05/27 00:14:39;;;;;;;0.77;0.77;;;;;;;8.41;90.57;99746.25;5084622;28;20028;-65
2021/05/27 00:17:05;;;;;;;0.30;0.30;;;;;;;8.42;90.46;99747.06;5084093;28;20081;-65
2021/05/27 00:19:30;;;;;;;0.32;0.32;;;;;;;8.42;90.79;99750.53;5084321;28;20088;-65
2021/05/27 00:21:55;;;;;;;0.30;0.30;;;;;;;8.45;90.60;99747.03;5084339;28;20024;-65
2021/05/27 00:24:21;;;;;;;0.35;0.35;;;;;;;8.50;90.74;99754.78;5084327;28;20039;-65
2021/05/27 00:26:46;;;;;;;0.30;0.30;;;;;;;8.52;90.74;99756.47;5084363;28;20028;-66
2021/05/27 00:29:11;;;;;;;0.30;0.30;;;;;;;8.50;90.77;99752.19;5084514;28;20058;-65
2021/05/27 00:31:37;;;;;;;0.30;0.30;;;;;;;8.49;90.77;99761.69;5083904;28;20166;-65
2021/05/27 00:34:03;;;;;;;0.30;0.30;;;;;;;8.46;90.55;99755.66;5083620;28;20020;-65
2021/05/27 00:36:29;;;;;;;0.30;0.30;;;;;;;8.47;90.46;99752.19;5084207;28;20084;-65
2021/05/27 00:38:54;;;;;;;0.38;0.38;;;;;;;8.46;90.55;99761.72;5084156;28;20032;-65
2021/05/27 00:41:20;;;;;;;0.40;0.40;;;;;;;8.46;90.70;99764.28;5083932;28;20022;-65
2021/05/27 00:43:45;;;;;;;0.20;0.20;;;;;;;8.51;90.65;99764.25;5083887;28;20452;-65
2021/05/27 00:46:10;;;;;;;0.40;0.40;;;;;;;8.50;90.63;99775.47;5083670;28;20032;-65
2021/05/27 00:51:20;;;;;;;0.40;0.40;;;;;;;8.47;90.31;99778.06;5083764;28;20055;-65
2021/05/27 00:53:45;;;;;;;0.30;0.30;;;;;;;8.46;90.34;99786.72;5083544;28;20025;-64
2021/05/27 00:56:11;;;;;;;0.35;0.35;;;;;;;8.39;90.27;99786.78;5083367;28;20028;-64
2021/05/27 00:58:36;;;;;;;0.30;0.30;;;;;;;8.40;90.03;99785.88;5083585;28;20020;-63
2021/05/27 01:01:03;;;;;;;0.30;0.30;;;;;;;8.26;89.94;99787.78;5083289;28;20024;-63
2021/05/27 01:03:28;;;;;;;0.30;0.30;;;;;;;8.23;90.28;99780.00;5083358;28;20081;-63
2021/05/27 01:05:53;;;;;;;0.32;0.32;;;;;;;8.24;90.05;99786.91;5083390;28;20110;-63
2021/05/27 01:08:19;;;;;;;0.30;0.30;;;;;;;8.27;89.74;99794.66;5083457;28;20529;-63
2021/05/27 01:10:44;;;;;;;0.35;0.35;;;;;;;8.24;90.09;99792.09;5083475;28;20086;-63
2021/05/27 01:13:09;;;;;;;0.40;0.40;;;;;;;8.22;90.27;99793.81;5083226;28;20021;-63
2021/05/27 01:15:35;;;;;;;0.30;0.30;;;;;;;8.23;90.31;99796.41;5081514;28;20045;-63
2021/05/27 01:18:09;;;;;;;0.30;0.30;;;;;;;8.24;90.48;99797.25;5083314;28;20037;-63
2021/05/27 01:20:36;;;;;;;0.30;0.30;;;;;;;8.25;90.56;99789.50;5083245;28;20021;-63
2021/05/27 01:23:03;;;;;;;0.30;0.30;;;;;;;8.24;90.65;99792.94;5083076;28;20021;-64
2021/05/27 01:25:29;;;;;;;0.30;0.30;;;;;;;8.28;90.62;99796.34;5082059;28;20025;-65
2021/05/27 01:27:55;;;;;;;0.30;0.30;;;;;;;8.28;90.52;99802.41;5081886;28;20357;-65
2021/05/27 01:30:21;;;;;;;0.40;0.40;;;;;;;8.30;90.32;99802.38;5082958;28;20023;-65
2021/05/27 01:32:47;;;;;;;0.30;0.30;;;;;;;8.24;90.39;99810.19;5083074;28;20021;-66
2021/05/27 01:35:16;;;;;;;0.30;0.30;;;;;;;8.21;90.45;99812.81;5083098;28;20025;-66
2021/05/27 01:37:42;;;;;;;0.30;0.30;;;;;;;8.21;90.52;99812.81;5083322;28;20035;-66
2021/05/27 01:40:08;;;;;;;0.30;0.30;;;;;;;8.17;90.59;99810.25;5083221;28;20029;-67
2021/05/27 01:42:33;;;;;;;0.30;0.30;;;;;;;8.18;90.49;99803.31;5083335;28;20088;-67
2021/05/27 01:44:59;;;;;;;0.40;0.40;;;;;;;8.21;90.48;99815.38;5083638;28;20052;-67
2021/05/27 01:47:24;;;;;;;0.30;0.30;;;;;;;8.19;90.42;99818.81;5083025;28;20028;-68
2021/05/27 01:49:49;;;;;;;0.30;0.30;;;;;;;8.19;90.41;99816.25;5083311;28;20558;-68
2021/05/27 01:52:15;;;;;;;0.30;0.30;;;;;;;8.22;90.28;99819.69;5083113;28;20020;-70
2021/05/27 01:54:40;;;;;;;0.40;0.40;;;;;;;8.12;90.43;99806.84;5081858;28;20016;-71
2021/05/27 01:57:06;;;;;;;0.40;0.40;;;;;;;8.18;90.32;99814.53;5083226;28;20017;-70
2021/05/27 01:59:31;;;;;;;0.30;0.30;;;;;;;8.17;90.32;99811.97;5083046;28;20364;-70
2021/05/27 02:01:57;;;;;;;0.30;0.30;;;;;;;8.22;90.34;99824.84;5082870;28;20031;-70
2021/05/27 02:04:23;;;;;;;0.30;0.30;;;;;;;8.24;90.29;99828.28;5082916;28;20032;-70
2021/05/27 02:06:48;;;;;;;0.38;0.38;;;;;;;8.22;90.26;99828.31;5083085;28;20040;-69
2021/05/27 02:09:13;;;;;;;0.30;0.30;;;;;;;8.26;90.30;99827.41;5082976;28;20084;-68
2021/05/27 02:11:44;;;;;;;0.30;0.30;;;;;;;8.28;90.26;99829.97;5083236;28;20044;-68
2021/05/27 02:14:15;;;;;;;0.30;0.30;;;;;;;8.26;90.08;99832.56;5083141;28;20025;-68
2021/05/27 02:16:41;;;;;;;0.30;0.30;;;;;;;8.26;89.93;99842.91;5082889;28;20496;-67
2021/05/27 02:19:08;;;;;;;0.30;0.30;;;;;;;8.26;89.93;99842.91;5081694;28;20043;-66
2021/05/27 02:21:33;;;;;;;0.30;0.30;;;;;;;8.24;90.21;99844.66;5082017;28;20020;-67
2021/05/27 02:24:01;;;;;;;0.40;0.40;;;;;;;8.29;89.95;99847.22;5083094;28;20047;-67
2021/05/27 02:26:28;;;;;;;0.40;0.40;;;;;;;8.33;89.99;99848.91;5083348;28;20020;-66
2021/05/27 02:28:53;;;;;;;0.30;0.30;;;;;;;8.30;89.98;99846.34;5083003;28;20027;-65
2021/05/27 02:31:21;;;;;;;0.30;0.30;;;;;;;8.32;89.98;99847.19;5082510;28;20052;-66
2021/05/27 02:33:47;;;;;;;0.40;0.40;;;;;;;8.28;89.68;99848.94;5082698;28;20028;-66
2021/05/27 02:36:12;;;;;;;0.40;0.40;;;;;;;8.31;89.53;99851.50;5082718;28;20036;-66
2021/05/27 02:38:38;;;;;;;0.40;0.40;;;;;;;8.24;89.54;99847.22;5082651;28;20028;-68
2021/05/27 02:41:05;;;;;;;0.40;0.40;;;;;;;8.26;89.67;99853.25;5082608;28;20032;-68
2021/05/27 02:43:30;;;;;;;0.30;0.30;;;;;;;8.30;89.71;99860.16;5082723;28;20040;-68
2021/05/27 02:45:56;;;;;;;0.30;0.30;;;;;;;8.27;89.57;99859.31;5082458;28;20021;-68
2021/05/27 02:48:22;;;;;;;0.30;0.30;;;;;;;8.24;89.46;99861.91;5082621;28;20070;-68
2021/05/27 02:50:47;;;;;;;0.40;0.40;;;;;;;8.20;89.50;99863.66;5082392;28;20039;-67
2021/05/27 02:53:13;;;;;;;0.30;0.30;;;;;;;8.17;89.69;99859.38;5082293;28;20043;-69
2021/05/27 02:55:38;;;;;;;0.30;0.30;;;;;;;8.07;89.55;99862.88;5081116;28;20024;-68
2021/05/27 02:58:04;;;;;;;0.40;0.40;;;;;;;8.06;89.57;99859.47;5083830;28;20056;-67
2021/05/27 03:00:29;;;;;;;0.40;0.40;;;;;;;8.08;89.54;99877.53;5085601;28;20025;-66
2021/05/27 03:02:55;;;;;;;0.40;0.40;;;;;;;8.03;89.45;99881.88;5086085;28;20020;-66
2021/05/27 03:05:20;;;;;;;0.40;0.40;;;;;;;7.96;89.52;99877.59;5085969;28;20507;-66
2021/05/27 03:07:45;;;;;;;0.30;0.30;;;;;;;7.92;89.69;99877.63;5086047;28;20027;-66
2021/05/27 03:10:11;;;;;;;0.35;0.35;;;;;;;7.92;89.44;99885.38;5085877;28;20040;-66
2021/05/27 03:12:37;;;;;;;0.40;0.40;;;;;;;7.89;89.55;99887.97;5085794;28;20039;-65
2021/05/27 03:15:05;;;;;;;0.30;0.30;;;;;;;7.77;89.61;99880.28;5085623;28;20028;-65
2021/05/27 03:17:30;;;;;;;0.30;0.30;;;;;;;7.83;89.57;99890.59;5083785;28;20488;-65
2021/05/27 03:19:56;;;;;;;0.30;0.30;;;;;;;7.80;89.73;99885.44;5085605;28;20024;-66
2021/05/27 03:22:21;;;;;;;0.38;0.38;;;;;;;7.80;89.68;99890.59;5085416;28;20028;-67
2021/05/27 03:24:46;;;;;;;0.40;0.40;;;;;;;7.76;90.04;99897.53;5085579;28;20024;-66
2021/05/27 03:27:13;;;;;;;0.30;0.30;;;;;;;7.73;89.92;99888.94;5085393;28;20035;-65
2021/05/27 03:29:39;;;;;;;0.30;0.30;;;;;;;7.69;89.79;99895.84;5085450;28;20080;-64
2021/05/27 03:32:05;;;;;;;0.30;0.30;;;;;;;7.67;89.83;99889.81;5085170;28;20031;-63
2021/05/27 03:34:30;;;;;;;0.40;0.40;;;;;;;7.66;89.96;99894.13;5085313;28;20024;-63
2021/05/27 03:36:55;;;;;;;0.30;0.30;;;;;;;7.62;90.14;99897.59;5085447;28;20020;-63
2021/05/27 03:39:21;;;;;;;0.40;0.40;;;;;;;7.63;90.06;99899.31;5085340;28;20035;-61
2021/05/27 03:41:46;;;;;;;0.30;0.30;;;;;;;7.63;90.38;99901.91;5085130;28;20025;-61
2021/05/27 03:44:11;;;;;;;0.30;0.30;;;;;;;7.67;90.11;99910.47;5085146;28;20024;-61
2021/05/27 03:46:37;;;;;;;0.40;0.40;;;;;;;7.62;90.20;99912.25;5084827;28;20025;-63
2021/05/27 03:49:03;;;;;;;0.40;0.40;;;;;;;7.57;89.96;99917.44;5085023;28;20088;-61
2021/05/27 03:51:28;;;;;;;0.40;0.40;;;;;;;7.59;90.34;99918.25;5085007;28;20027;-60
2021/05/27 03:53:54;;;;;;;0.40;0.40;;;;;;;7.61;90.35;99921.72;5084740;28;20033;-61
2021/05/27 03:56:19;;;;;;;0.30;0.30;;;;;;;7.58;90.08;99916.56;5084857;28;20043;-62
2021/05/27 04:01:28;;;;;;;0.40;0.40;;;;;;;7.56;90.28;99913.97;5084584;28;20055;-64
2021/05/27 04:09:35;;;;;;;0.30;0.30;;;;;;;7.59;90.30;99917.44;5041204;28;20099;-66
2021/05/27 04:17:43;;;;;;;0.40;0.40;;;;;;;7.63;90.18;99920.00;5001885;28;20105;-68
2021/05/27 04:20:09;;;;;;;0.30;0.30;;;;;;;7.73;90.29;99919.94;5002096;28;20050;-68
2021/05/27 04:22:37;;;;;;;0.40;0.40;;;;;;;7.74;90.31;99919.06;5002168;28;20604;-68
2021/05/27 04:25:02;;;;;;;0.30;0.30;;;;;;;7.74;90.14;99913.91;5002246;28;20041;-69
2021/05/27 04:27:28;;;;;;;0.40;0.40;;;;;;;7.77;90.30;99931.97;5002093;28;20026;-67
2021/05/27 04:29:53;;;;;;;0.30;0.30;;;;;;;7.81;90.06;99916.44;5001930;28;20103;-68
2021/05/27 04:35:04;;;;;;;0.40;0.40;;;;;;;8.05;90.02;99927.53;5001966;28;20028;-68
2021/05/27 04:37:29;;;;;;;0.40;0.40;;;;;;;8.13;89.59;99918.88;5001603;28;20030;-68
2021/05/27 04:39:55;;;;;;;0.30;0.30;;;;;;;8.30;89.34;99932.56;5001491;28;20101;-70
2021/05/27 04:42:20;;;;;;;0.30;0.30;;;;;;;8.31;89.52;99938.56;5010430;28;20038;-69
2021/05/27 04:44:45;;;;;;;0.30;0.30;;;;;;;8.33;89.10;99943.72;5021703;28;20133;-70
2021/05/27 04:47:11;;;;;;;0.40;0.40;;;;;;;8.35;89.33;99945.47;5021138;28;20084;-70
2021/05/27 04:49:36;;;;;;;0.38;0.38;;;;;;;8.38;89.33;99945.44;5027591;28;20033;-69
2021/05/27 04:52:02;;;;;;;0.30;0.30;;;;;;;8.59;89.17;99940.16;5084056;28;20035;-69
2021/05/27 04:54:27;;;;;;;0.30;0.30;;;;;;;8.65;88.58;99953.91;5084454;28;20516;-69
2021/05/27 04:56:52;;;;;;;0.30;0.30;;;;;;;8.67;88.89;99946.97;5084164;28;20084;-68
2021/05/27 04:59:18;;;;;;;0.30;0.30;;;;;;;8.96;89.31;99949.34;5082663;28;20115;-69
2021/05/27 05:01:43;;;;;;;0.30;0.30;;;;;;;9.26;89.42;99949.91;5082363;28;20032;-70
2021/05/27 05:04:08;;;;;;;0.50;0.50;;;;;;;9.26;88.78;99949.91;5083726;28;20027;-70
2021/05/27 05:06:34;;;;;;;0.30;0.30;;;;;;;9.12;87.63;99948.28;5083852;28;20373;-69
2021/05/27 05:08:59;;;;;;;0.30;0.30;;;;;;;8.95;87.75;99945.88;5083738;28;20021;-69
2021/05/27 05:11:24;;;;;;;0.30;0.30;;;;;;;9.01;88.32;99961.34;5083747;28;20081;-69
2021/05/27 05:13:50;;;;;;;0.30;0.30;;;;;;;9.51;88.58;99954.81;5083820;28;20051;-69
2021/05/27 05:16:15;;;;;;;0.30;0.30;;;;;;;10.22;89.33;99954.78;5081907;28;20031;-69
2021/05/27 05:18:41;;;;;;;0.30;0.30;;;;;;;10.87;89.04;99961.63;5083561;28;20076;-70
2021/05/27 05:21:06;;;;;;;0.30;0.30;;;;;;;11.24;88.90;99956.66;5081916;28;20082;-69
2021/05/27 05:23:31;;;;;;;0.30;0.30;;;;;;;11.69;89.35;99961.00;5083591;28;20028;-69
2021/05/27 05:25:57;;;;;;;0.30;0.30;;;;;;;11.76;88.36;99959.09;5083498;28;20043;-69
2021/05/27 05:28:22;;;;;;;0.30;0.30;;;;;;;11.57;86.62;99974.22;5083519;28;20035;-69
2021/05/27 05:30:48;;;;;;;0.20;0.20;;;;;;;11.14;85.63;99984.53;5083186;28;20059;-69
2021/05/27 05:33:13;;;;;;;0.30;0.30;;;;;;;10.64;83.05;99975.81;5083312;28;20020;-69
2021/05/27 05:35:39;;;;;;;0.30;0.30;;;;;;;10.20;84.11;99985.94;5083114;28;20084;-70
2021/05/27 05:38:05;;;;;;;0.30;0.30;;;;;;;9.89;83.95;100002.75;5083088;28;20035;-69
2021/05/27 05:40:31;;;;;;;0.30;0.30;;;;;;;9.75;83.56;100002.06;5083367;28;20119;-69
2021/05/27 05:42:58;;;;;;;0.30;0.30;;;;;;;9.65;84.36;100004.75;5082988;28;20032;-69
2021/05/27 05:45:24;;;;;;;0.30;0.30;;;;;;;9.52;84.55;99998.84;5081783;28;20024;-68
2021/05/27 05:47:50;;;;;;;0.30;0.30;;;;;;;9.41;84.62;100000.69;5082863;28;20057;-69
2021/05/27 05:53:04;;;;;;;0.30;0.30;;;;;;;9.40;84.80;100006.75;5083179;28;20104;-68
2021/05/27 05:55:29;;;;;;;0.30;0.30;;;;;;;9.60;84.73;100006.53;5081759;28;20506;-69
2021/05/27 05:57:54;;;;;;;0.30;0.30;;;;;;;9.98;84.15;99995.75;5083044;28;20186;-68
2021/05/27 06:00:20;;;;;;;0.30;0.30;;;;;;;10.64;83.54;99996.59;5083240;28;20092;-68
2021/05/27 06:02:45;;;;;;;0.30;0.30;;;;;;;11.01;83.62;100002.94;5082732;28;20017;-68
2021/05/27 06:05:11;;;;;;;0.20;0.20;;;;;;;11.01;79.70;99994.28;5083235;28;20103;-67
2021/05/27 06:07:36;;;;;;;0.30;0.30;;;;;;;10.71;78.93;99996.50;5083274;28;20100;-68
2021/05/27 06:10:02;;;;;;;0.30;0.30;;;;;;;10.52;78.71;99996.78;5083215;28;20023;-68
2021/05/27 06:12:27;;;;;;;1.42;1.38;;;;;;;10.26;79.27;99992.78;5082977;28;20396;-67
2021/05/27 06:14:53;;;;;;;0.30;0.30;;;;;;;10.03;80.13;100004.34;5083096;28;20040;-69
2021/05/27 06:17:18;;;;;;;0.30;0.30;;;;;;;9.95;80.16;99999.25;5082677;28;20102;-68
2021/05/27 06:19:43;;;;;;;0.30;0.30;;;;;;;9.85;80.46;100008.88;5082920;28;20013;-68
2021/05/27 06:22:09;;;;;;;0.30;0.30;;;;;;;9.77;80.75;100013.28;5083208;28;20086;-68
2021/05/27 06:24:34;;;;;;;0.30;0.30;;;;;;;9.71;81.19;100013.34;5082893;28;20032;-69
2021/05/27 06:26:59;;;;;;;0.20;0.20;;;;;;;9.72;80.72;100022.84;5083305;28;20024;-69
2021/05/27 06:29:25;;;;;;;0.30;0.30;;;;;;;9.64;80.54;100018.59;5082964;28;20028;-69
2021/05/27 06:31:50;;;;;;;0.30;0.30;;;;;;;9.60;80.50;100022.09;5082679;28;20025;-69
2021/05/27 06:34:15;;;;;;;0.30;0.30;;;;;;;9.64;81.30;100012.56;5086226;28;20028;-68
2021/05/27 06:36:41;;;;;;;1.40;1.33;;;;;;;10.27;81.72;100015.25;5086846;28;20033;-69
2021/05/27 06:39:06;;;;;;;0.30;0.30;;;;;;;10.86;78.72;100009.22;5086707;28;20016;-68
2021/05/27 06:41:32;;;;;;;0.30;0.30;;;;;;;11.22;77.15;100018.16;5086798;28;20100;-68
2021/05/27 06:43:57;;;;;;;0.30;0.30;;;;;;;11.26;76.68;100025.88;5086612;28;20365;-68
2021/05/27 06:46:22;;;;;;;0.30;0.30;;;;;;;11.27;76.87;100034.53;5086225;28;20021;-67
2021/05/27 06:48:48;;;;;;;1.60;1.25;;;;;;;11.69;79.29;100018.22;5085246;28;20093;-67
2021/05/27 06:51:13;;;;;;;2.53;1.25;;;;;;;12.16;79.84;100029.47;5086412;28;20403;-67
2021/05/27 06:53:38;;;;;;;2.50;1.30;;;;;;;12.28;75.56;100037.00;5084847;28;20051;-67
2021/05/27 06:56:04;;;;;;;3.60;1.13;;;;;;;12.02;72.28;100030.56;5086552;28;20024;-69
2021/05/27 06:58:29;;;;;;;2.55;1.10;;;;;;;11.79;71.40;100034.47;5086444;28;20024;-70
2021/05/27 07:00:54;;;;;;;1.52;1.08;;;;;;;11.50;70.83;100041.09;5084273;28;20071;-68
2021/05/27 07:03:21;;;;;;;1.42;1.02;;;;;;;11.31;73.38;100044.00;5085999;28;20024;-68
2021/05/27 07:05:47;;;;;;;1.40;0.90;;;;;;;11.67;76.19;100021.69;5086212;28;20025;-68
2021/05/27 07:08:13;;;;;;;1.50;0.82;;;;;;;12.14;73.94;100040.72;5086315;28;20088;-68
2021/05/27 07:10:39;;;;;;;1.38;1.00;;;;;;;12.44;72.76;100023.63;5086102;28;20016;-69
2021/05/27 07:13:07;;;;;;;1.35;0.90;;;;;;;12.61;72.65;100028.44;5086112;28;20025;-68
2021/05/27 07:15:34;;;;;;;1.67;0.90;;;;;;;12.83;73.34;100026.19;5086242;28;20024;-68
2021/05/27 07:17:59;;;;;;;2.47;0.90;;;;;;;13.26;71.87;100041.66;5085734;28;20048;-69
2021/05/27 07:20:26;;;;;;;1.95;1.05;;;;;;;13.69;69.66;100044.09;5086330;28;20084;-68
2021/05/27 07:22:53;;;;;;;4.03;1.27;;;;;;;14.01;69.36;100044.91;5086346;28;20028;-70
2021/05/27 07:25:20;;;;;;;1.08;0.73;;;;;;;14.27;68.92;100045.06;5086009;28;20017;-68
2021/05/27 07:27:48;;;;;;;0.98;0.52;;;;;;;14.85;64.98;100050.28;5086067;28;20021;-68
2021/05/27 07:30:14;;;;;;;1.50;0.60;;;;;;;14.53;61.36;100067.78;5085807;28;20453;-68
2021/05/27 07:32:39;;;;;;;1.95;0.65;;;;;;;13.86;62.78;100060.13;5085696;28;20103;-69
2021/05/27 07:35:06;;;;;;;0.95;0.60;;;;;;;13.57;63.87;100050.47;5085905;28;20088;-69
2021/05/27 07:37:32;;;;;;;2.42;0.90;;;;;;;13.65;63.16;100060.69;5085611;28;20032;-67
2021/05/27 07:39:58;;;;;;;1.55;0.82;;;;;;;13.59;64.46;100062.59;5085600;28;20105;-68
2021/05/27 07:42:23;;;;;;;0.98;0.70;;;;;;;13.66;66.05;100068.47;5085495;28;20029;-68
2021/05/27 07:44:48;;;;;;;2.95;0.73;;;;;;;14.09;64.74;100095.16;5085503;28;20017;-67
2021/05/27 07:47:14;;;;;;;0.88;0.70;;;;;;;14.35;60.90;100064.84;5085240;28;20048;-67
2021/05/27 07:49:39;;;;;;;2.40;0.82;;;;;;;14.22;63.61;100066.09;5085589;28;20491;-68
2021/05/27 07:52:06;;;;;;;1.63;1.10;;;;;;;14.41;61.72;100073.41;5085718;28;20023;-68
2021/05/27 07:54:32;;;;;;;0.60;0.50;;;;;;;14.86;58.08;100062.44;5085469;28;20535;-69
2021/05/27 07:56:57;;;;;;;0.50;0.50;;;;;;;14.80;55.37;100069.63;5067818;28;20097;-69
2021/05/27 07:59:23;;;;;;;1.00;0.80;;;;;;;14.21;58.37;100077.44;5085677;28;20031;-68
2021/05/27 08:01:49;;;;;;;1.73;0.90;;;;;;;14.06;61.66;100073.50;5085248;28;20029;-68
2021/05/27 08:04:14;;;;;;;1.00;0.80;;;;;;;14.14;60.89;100081.97;5085447;28;20201;-68
2021/05/27 08:06:42;;;;;;;2.42;1.10;;;;;;;13.92;62.91;100079.09;5085510;28;20024;-69
2021/05/27 08:09:10;;;;;;;2.83;1.00;;;;;;;13.87;62.70;100092.28;5085345;28;20035;-68
2021/05/27 08:11:39;;;;;;;1.70;0.90;;;;;;;13.96;63.85;100093.81;5085294;28;20016;-68
2021/05/27 08:14:05;;;;;;;1.65;0.90;;;;;;;13.81;60.77;100090.72;5085262;28;20658;-68
2021/05/27 08:16:30;;;;;;;3.90;0.98;;;;;;;13.44;63.06;100100.31;5084842;28;20032;-68
2021/05/27 08:18:56;;;;;;;1.30;0.80;;;;;;;13.61;63.99;100099.06;5084901;28;20480;-69
2021/05/27 08:21:21;;;;;;;2.55;1.10;;;;;;;13.92;62.37;100094.75;5085139;28;20063;-68
2021/05/27 08:23:47;;;;;;;1.58;1.10;;;;;;;14.22;61.95;100106.09;5084677;28;20028;-69
2021/05/27 08:26:12;;;;;;;2.00;0.95;;;;;;;14.52;60.08;100105.25;5085175;28;20029;-69
2021/05/27 08:28:38;;;;;;;5.03;1.13;;;;;;;14.47;60.97;100105.38;5084939;28;20036;-68
2021/05/27 08:31:03;;;;;;;2.58;0.70;;;;;;;14.30;61.73;100118.06;5084538;28;20023;-67
2021/05/27 08:33:30;;;;;;;1.65;0.88;;;;;;;14.10;60.53;100104.72;5084606;28;20027;-67
2021/05/27 08:35:55;;;;;;;2.00;0.88;;;;;;;14.51;60.92;100116.59;5083515;28;20020;-67
2021/05/27 08:38:21;;;;;;;2.90;1.10;;;;;;;15.10;60.99;100104.38;5084774;28;20467;-67
2021/05/27 08:40:46;;;;;;;1.42;1.00;;;;;;;15.70;59.41;100112.91;5084610;28;20051;-67
2021/05/27 08:43:13;;;;;;;1.48;1.00;;;;;;;16.27;53.21;100117.91;5084435;28;20048;-67
2021/05/27 08:45:41;;;;;;;1.35;1.15;;;;;;;15.86;54.62;100114.06;5084663;28;20035;-67
2021/05/27 08:48:10;;;;;;;1.27;1.00;;;;;;;15.86;53.60;100115.84;5084027;28;20105;-67
2021/05/27 08:50:41;;;;;;;2.30;0.80;;;;;;;15.71;55.23;100114.59;5084388;28;20016;-67
2021/05/27 08:53:06;;;;;;;1.30;0.98;;;;;;;15.65;56.36;100114.81;5084349;28;20020;-67
2021/05/27 08:55:33;;;;;;;2.38;1.17;;;;;;;15.56;54.61;100116.84;5083415;28;20036;-67
2021/05/27 08:57:58;;;;;;;2.50;1.00;;;;;;;15.13;55.29;100126.94;5083952;28;20029;-67
2021/05/27 09:00:24;;;;;;;1.73;0.90;;;;;;;14.77;56.71;100132.41;5084136;28;20023;-67
2021/05/27 09:03:01;;;;;;;1.35;1.00;;;;;;;14.27;58.73;100136.44;5083742;28;20437;-66
2021/05/27 09:05:28;;;;;;;1.95;1.17;;;;;;;13.92;58.67;100144.34;5084238;28;20031;-67
2021/05/27 09:07:53;;;;;;;1.35;1.00;;;;;;;13.43;58.99;100129.91;5084331;28;20024;-67
2021/05/27 09:10:20;;;;;;;2.28;1.20;;;;;;;13.04;59.23;100146.44;5084270;28;20049;-68
2021/05/27 09:12:45;;;;;;;1.50;1.13;;;;;;;12.61;60.24;100153.44;5083986;28;20080;-69
2021/05/27 09:15:17;;;;;;;1.65;0.98;;;;;;;12.61;61.06;100146.50;5084078;28;20027;-71
2021/05/27 09:17:53;;;;;;;1.58;1.25;;;;;;;12.72;62.46;100151.47;5083487;28;20299;-67
2021/05/27 09:20:23;;;;;;;1.48;0.98;;;;;;;12.89;60.25;100153.72;5084021;28;20021;-69
2021/05/27 09:23:11;;;;;;;2.78;1.38;;;;;;;12.92;61.16;100157.16;5083756;28;20138;-68
2021/05/27 09:25:38;;;;;;;1.10;0.80;;;;;;;13.34;60.91;100164.88;5082545;28;20059;-68
2021/05/27 09:28:06;;;;;;;2.13;1.48;;;;;;;13.66;60.27;100164.16;5083952;28;20077;-68
2021/05/27 09:30:41;;;;;;;3.90;1.42;;;;;;;14.32;60.95;100152.84;5083933;28;20016;-68
2021/05/27 09:33:06;;;;;;;3.42;1.58;;;;;;;15.18;59.74;100174.72;5083451;28;20021;-67
2021/05/27 09:35:32;;;;;;;1.88;1.50;;;;;;;15.40;55.06;100153.13;5083728;28;20501;-68
2021/05/27 09:37:57;;;;;;;3.35;1.80;;;;;;;15.08;56.87;100162.88;5083540;28;20024;-68
2021/05/27 09:40:36;;;;;;;2.42;1.45;;;;;;;14.86;57.58;100169.59;5083703;28;20040;-68
2021/05/27 09:43:03;;;;;;;2.55;1.92;;;;;;;14.47;57.73;100162.84;5083621;28;20020;-66
2021/05/27 09:45:30;;;;;;;3.05;1.50;;;;;;;14.55;58.35;100165.25;5083447;28;20025;-68
2021/05/27 09:47:56;;;;;;;1.73;1.20;;;;;;;14.41;58.71;100168.25;5083573;28;20017;-68
2021/05/27 09:50:31;;;;;;;3.10;1.20;;;;;;;14.00;58.05;100171.09;5083520;28;20028;-68
2021/05/27 09:53:11;;;;;;;4.10;1.95;;;;;;;13.42;59.73;100182.09;5083582;28;20035;-67
2021/05/27 09:55:37;;;;;;;2.67;1.65;;;;;;;13.07;61.76;100176.78;5083485;28;20031;-69
2021/05/27 09:58:11;;;;;;;4.20;1.80;;;;;;;12.93;61.96;100184.91;5083447;28;20029;-68
2021/05/27 10:00:38;;;;;;;4.32;2.03;;;;;;;12.91;62.96;100187.56;5083590;28;20089;-68
2021/05/27 10:03:32;;;;;;;3.25;2.00;;;;;;;13.18;63.23;100189.59;5082982;28;20035;-67
2021/05/27 10:06:01;;;;;;;3.13;2.00;;;;;;;13.77;59.06;100187.38;5083864;28;20024;-68
2021/05/27 10:08:27;;;;;;;4.38;2.40;;;;;;;13.67;60.82;100181.50;5085875;28;20316;-68
2021/05/27 10:10:56;;;;;;;5.13;2.17;;;;;;;13.91;61.81;100187.00;5087713;28;20079;-68
2021/05/27 10:13:26;;;;;;;7.10;2.10;;;;;;;13.95;61.26;100189.50;5087454;28;20020;-68
2021/05/27 10:15:51;;;;;;;3.83;2.10;;;;;;;13.86;62.43;100194.94;5087563;28;20085;-66
2021/05/27 10:18:18;;;;;;;6.35;1.98;;;;;;;13.79;62.70;100204.69;5087220;28;20040;-68
2021/05/27 10:20:45;;;;;;;4.63;2.15;;;;;;;13.53;60.89;100206.16;5087498;28;20066;-68
2021/05/27 10:23:11;;;;;;;4.30;2.25;;;;;;;13.09;60.14;100217.56;5087347;28;20056;-68
2021/05/27 10:25:37;;;;;;;2.70;1.98;;;;;;;12.61;62.15;100215.97;5085973;28;20489;-68
2021/05/27 10:28:08;;;;;;;3.90;2.20;;;;;;;12.30;63.95;100219.16;5086015;28;20479;-67
2021/05/27 10:30:40;;;;;;;2.83;2.10;;;;;;;11.98;66.43;100231.84;5087276;28;20543;-68
2021/05/27 10:33:08;;;;;;;6.22;2.60;;;;;;;11.84;66.40;100235.50;5086802;28;20073;-69
2021/05/27 10:36:00;;;;;;;5.28;2.35;;;;;;;11.73;68.08;100253.91;5087334;28;20029;-68
2021/05/27 10:38:41;;;;;;;5.25;1.80;;;;;;;11.70;68.68;100268.69;5087196;28;20025;-69
2021/05/27 10:41:07;;;;;;;3.08;1.70;;;;;;;11.61;67.81;100270.53;5086876;28;20029;-67
2021/05/27 10:43:33;;;;;;;3.70;2.03;;;;;;;11.23;67.80;100274.56;5086846;28;20056;-69
2021/05/27 10:46:01;;;;;;;2.20;1.58;;;;;;;10.87;68.72;100278.44;5085351;28;20024;-66
2021/05/27 10:48:29;;;;;;;2.33;1.67;;;;;;;10.78;70.18;100268.19;5086890;28;20036;-68
2021/05/27 10:53:33;;;;;;;1.67;1.23;;;;;;;10.91;68.71;100274.94;5086399;28;20025;-68
2021/05/27 10:56:05;;;;;;;2.28;1.67;;;;;;;11.06;68.40;100277.34;5086326;28;20489;-68
2021/05/27 10:58:45;;;;;;;2.35;1.50;;;;;;;11.22;68.93;100271.09;5086518;28;20111;-68
2021/05/27 11:01:15;;;;;;;1.15;0.93;;;;;;;11.40;66.75;100263.94;5085954;28;20024;-67
2021/05/27 11:03:52;;;;;;;2.90;1.25;;;;;;;11.63;66.40;100268.78;5084867;28;20031;-68
2021/05/27 11:06:21;;;;;;;1.70;1.20;;;;;;;11.93;66.57;100254.47;5086383;28;20036;-69
2021/05/27 11:08:47;;;;;;;4.20;2.45;;;;;;;12.12;65.92;100250.69;5086160;28;20059;-69
2021/05/27 11:11:34;;;;;;;1.70;1.02;;;;;;;12.29;66.88;100244.31;5086226;28;20048;-68
2021/05/27 11:15:02;;;;;;;1.08;0.90;;;;;;;12.41;65.21;100253.66;5086115;28;20035;-69
2021/05/27 11:17:24;;;;;;;3.25;1.27;;;;;;;12.29;63.28;100246.94;5083260;28;20048;-68
2021/05/27 11:20:07;;;;;;;2.95;1.27;;;;;;;12.45;63.62;100252.72;5085332;28;20028;-68
2021/05/27 11:25:16;;;;;;;2.72;1.30;;;;;;;12.82;62.67;100243.31;5085674;28;20077;-68
2021/05/27 11:27:49;;;;;;;2.50;1.42;;;;;;;12.98;61.23;100249.09;5085714;28;20057;-67
2021/05/27 11:30:25;;;;;;;3.47;1.20;;;;;;;13.22;62.30;100240.75;5085948;28;20033;-68
2021/05/27 11:32:55;;;;;;;2.10;1.40;;;;;;;13.41;58.12;100249.03;5085293;28;20023;-66
2021/05/27 11:35:23;;;;;;;2.25;1.25;;;;;;;13.50;57.79;100251.44;5085697;28;20032;-67
2021/05/27 11:37:50;;;;;;;1.98;1.23;;;;;;;13.53;58.54;100263.53;5085683;28;20027;-68
2021/05/27 11:40:18;;;;;;;2.60;1.50;;;;;;;13.57;58.35;100261.72;5085722;28;20028;-67
2021/05/27 11:42:51;;;;;;;2.28;1.23;;;;;;;13.59;58.45;100255.59;5085610;28;20030;-68
2021/05/27 11:45:20;;;;;;;1.75;1.17;;;;;;;13.47;59.11;100253.22;5085567;28;20054;-68
2021/05/27 11:50:47;;;;;;;3.25;1.70;;;;;;;13.36;61.24;100272.59;5085431;28;20020;-68
2021/05/27 11:53:16;;;;;;;1.88;1.40;;;;;;;13.35;61.08;100280.44;5085240;28;20078;-67
2021/05/27 11:55:42;;;;;;;1.88;1.52;;;;;;;13.37;60.41;100271.69;5085319;28;20032;-68
2021/05/27 11:58:07;;;;;;;2.53;1.42;;;;;;;13.43;59.23;100267.25;5085145;28;20070;-67
2021/05/27 12:00:33;;;;;;;1.75;1.35;;;;;;;13.36;60.80;100269.13;5085243;28;20029;-67
2021/05/27 12:02:59;;;;;;;1.67;1.10;;;;;;;13.59;61.55;100271.25;5084861;28;20029;-69